SWR4TH LSZH-LSGG
Flight info
| Callsign | SWR4TH |
|---|---|
| Flight time | N/A |
| Altitude | 18000 |
| Route | VEBIT T50 ROTOS Z669 ULMES |
| Aircraft | A321/M-SDE3FGHIRWY/LB1 |
Departure
| Time | 2026-05-05 19:19 |
|---|---|
| Airport | Zürich Airport (LSZH) |
Arrival
| Time | N/A |
|---|---|
| Airport | Geneva International Airport (LSGG) |
| Time | Latitude | Longitude | Altitude | Speed | Heading |
|---|---|---|---|---|---|
| 2026-05-05 18:20 | 47.45414 | 8.56062 | 1411 ft | 0 kts | 186° |
| 2026-05-05 19:05 | 47.45415 | 8.56062 | 1407 ft | 1 kts | 186° |
| 2026-05-05 19:06 | 47.45434 | 8.56066 | 1409 ft | 3 kts | 191° |
| 2026-05-05 19:06 | 47.45453 | 8.56070 | 1415 ft | 3 kts | 170° |
| 2026-05-05 19:06 | 47.45469 | 8.56063 | 1411 ft | 3 kts | 150° |
| 2026-05-05 19:06 | 47.45483 | 8.56047 | 1412 ft | 3 kts | 117° |
| 2026-05-05 19:07 | 47.45489 | 8.56020 | 1414 ft | 3 kts | 96° |
| 2026-05-05 19:07 | 47.45489 | 8.56014 | 1414 ft | 0 kts | 95° |
| 2026-05-05 19:10 | 47.45489 | 8.56025 | 1410 ft | 4 kts | 95° |
| 2026-05-05 19:10 | 47.45483 | 8.56111 | 1407 ft | 9 kts | 95° |
| 2026-05-05 19:10 | 47.45481 | 8.56201 | 1408 ft | 8 kts | 79° |
| 2026-05-05 19:10 | 47.45511 | 8.56247 | 1412 ft | 7 kts | 22° |
| 2026-05-05 19:11 | 47.45562 | 8.56255 | 1415 ft | 6 kts | 4° |
| 2026-05-05 19:11 | 47.45589 | 8.56259 | 1412 ft | 2 kts | 6° |
| 2026-05-05 19:11 | 47.45595 | 8.56260 | 1415 ft | 1 kts | 6° |
| 2026-05-05 19:11 | 47.45608 | 8.56262 | 1415 ft | 0 kts | 7° |
| 2026-05-05 19:13 | 47.45633 | 8.56266 | 1414 ft | 8 kts | 6° |
| 2026-05-05 19:13 | 47.45716 | 8.56279 | 1419 ft | 15 kts | 6° |
| 2026-05-05 19:13 | 47.45793 | 8.56290 | 1416 ft | 8 kts | 5° |
| 2026-05-05 19:13 | 47.45847 | 8.56298 | 1416 ft | 8 kts | 6° |
| 2026-05-05 19:14 | 47.45896 | 8.56306 | 1416 ft | 7 kts | 6° |
| 2026-05-05 19:14 | 47.45930 | 8.56311 | 1415 ft | 3 kts | 6° |
| 2026-05-05 19:14 | 47.45953 | 8.56315 | 1414 ft | 3 kts | 6° |
| 2026-05-05 19:14 | 47.45964 | 8.56317 | 1412 ft | 1 kts | 6° |
| 2026-05-05 19:15 | 47.45978 | 8.56319 | 1412 ft | 6 kts | 6° |
| 2026-05-05 19:15 | 47.45995 | 8.56323 | 1413 ft | 1 kts | 7° |
| 2026-05-05 19:15 | 47.45996 | 8.56323 | 1413 ft | 0 kts | 7° |
| 2026-05-05 19:16 | 47.46033 | 8.56330 | 1413 ft | 9 kts | 8° |
| 2026-05-05 19:17 | 47.46091 | 8.56342 | 1411 ft | 8 kts | 8° |
| 2026-05-05 19:17 | 47.46146 | 8.56353 | 1416 ft | 8 kts | 9° |
| 2026-05-05 19:17 | 47.46199 | 8.56348 | 1411 ft | 7 kts | 333° |
| 2026-05-05 19:17 | 47.46221 | 8.56319 | 1414 ft | 0 kts | 317° |
| 2026-05-05 19:18 | 47.46222 | 8.56318 | 1415 ft | 1 kts | 317° |
| 2026-05-05 19:19 | 47.46329 | 8.56172 | 1407 ft | 57 kts | 317° |
| 2026-05-05 19:19 | 47.46798 | 8.55531 | 1397 ft | 123 kts | 317° |
| 2026-05-05 19:19 | 47.47553 | 8.54483 | 1415 ft | 170 kts | 312° |
| 2026-05-05 19:19 | 47.48407 | 8.53367 | 2138 ft | 161 kts | 317° |
| 2026-05-05 19:20 | 47.49246 | 8.52257 | 2728 ft | 168 kts | 314° |
| 2026-05-05 19:20 | 47.50180 | 8.51059 | 3006 ft | 189 kts | 322° |
| 2026-05-05 19:20 | 47.51383 | 8.49996 | 3252 ft | 213 kts | 328° |
| 2026-05-05 19:20 | 47.52593 | 8.48695 | 3703 ft | 217 kts | 309° |
| 2026-05-05 19:21 | 47.53341 | 8.46835 | 4358 ft | 213 kts | 285° |
| 2026-05-05 19:21 | 47.53495 | 8.44694 | 5033 ft | 209 kts | 262° |
| 2026-05-05 19:21 | 47.53064 | 8.42654 | 5736 ft | 209 kts | 244° |
| 2026-05-05 19:21 | 47.52421 | 8.40723 | 6395 ft | 209 kts | 240° |
| 2026-05-05 19:22 | 47.51445 | 8.39127 | 7015 ft | 213 kts | 218° |
| 2026-05-05 19:22 | 47.50050 | 8.38175 | 7345 ft | 237 kts | 197° |
| 2026-05-05 19:22 | 47.48360 | 8.37626 | 7665 ft | 259 kts | 195° |
| 2026-05-05 19:22 | 47.46565 | 8.37049 | 8353 ft | 266 kts | 195° |
| 2026-05-05 19:23 | 47.44748 | 8.36467 | 9115 ft | 269 kts | 195° |
| 2026-05-05 19:23 | 47.42914 | 8.35877 | 9895 ft | 271 kts | 195° |
| 2026-05-05 19:23 | 47.41025 | 8.35218 | 10276 ft | 288 kts | 200° |
| 2026-05-05 19:23 | 47.39209 | 8.33778 | 10422 ft | 308 kts | 220° |
| 2026-05-05 19:24 | 47.37801 | 8.31316 | 10767 ft | 322 kts | 240° |
| 2026-05-05 19:24 | 47.36753 | 8.28369 | 11403 ft | 326 kts | 242° |
| 2026-05-05 19:24 | 47.35698 | 8.25384 | 11797 ft | 328 kts | 242° |
| 2026-05-05 19:24 | 47.34633 | 8.22390 | 12418 ft | 331 kts | 242° |
| 2026-05-05 19:25 | 47.33555 | 8.19371 | 13172 ft | 334 kts | 242° |
| 2026-05-05 19:25 | 47.32469 | 8.16333 | 13871 ft | 336 kts | 242° |
| 2026-05-05 19:25 | 47.31376 | 8.13264 | 14458 ft | 340 kts | 242° |